Time;durP1;ratioP1;P1;durP2;ratioP2;P2;SDS_P1;SDS_P2;PMS_P1;PMS_P2;Temp;Humidity;BMP_temperature;BMP_pressure;BME280_temperature;BME280_humidity;BME280_pressure;Samples;Min_cycle;Max_cycle;Signal;HPM_P1;HPM_P2
2022/08/10 00:04:05;;;;;;;1.95;1.80;;;;;18.40;102061.00;;;;10415385;28;20226;-82
2022/08/10 00:09:07;;;;;;;2.22;1.60;;;;;18.30;102058.00;;;;10428050;28;20239;-82
2022/08/10 00:14:09;;;;;;;3.60;1.80;;;;;18.20;102062.00;;;;10412199;28;20280;-82
2022/08/10 00:19:11;;;;;;;2.45;1.67;;;;;18.20;102058.00;;;;10412344;28;20206;-81
2022/08/10 00:24:18;;;;;;;3.42;2.03;;;;;18.10;102061.00;;;;10428641;28;20213;-82
2022/08/10 00:29:20;;;;;;;2.42;1.95;;;;;18.00;102062.00;;;;10444093;28;20309;-82
2022/08/10 00:34:22;;;;;;;3.92;1.92;;;;;18.00;102059.00;;;;10432084;28;20229;-82
2022/08/10 00:39:25;;;;;;;3.30;1.80;;;;;17.90;102049.00;;;;10441130;28;20228;-82
2022/08/10 00:44:27;;;;;;;2.28;1.95;;;;;17.80;102053.00;;;;10425576;28;20588;-82
2022/08/10 00:49:30;;;;;;;4.57;1.98;;;;;17.70;102039.00;;;;10394897;28;20267;-82
2022/08/10 00:54:34;;;;;;;6.45;2.28;;;;;17.60;102049.00;;;;10410372;28;20196;-82
2022/08/10 00:59:37;;;;;;;3.38;2.00;;;;;17.60;102048.00;;;;10410465;28;20198;-82
2022/08/10 01:05:06;;;;;;;4.00;2.10;;;;;17.50;102040.00;;;;10438059;28;20268;-83
2022/08/10 01:10:27;;;;;;;2.88;2.17;;;;;17.50;102039.00;;;;10410477;28;20526;-82
2022/08/10 01:15:36;;;;;;;2.30;2.10;;;;;17.40;102034.00;;;;10440295;28;20192;-82
2022/08/10 01:20:50;;;;;;;3.27;1.73;;;;;17.40;102036.00;;;;10450005;28;20211;-82
2022/08/10 01:26:21;;;;;;;3.70;2.10;;;;;17.30;102031.00;;;;10449774;28;20873;-82
2022/08/10 01:31:37;;;;;;;3.37;1.90;;;;;17.30;102031.00;;;;10434872;28;20209;-82
2022/08/10 01:36:51;;;;;;;3.47;2.30;;;;;17.30;102027.00;;;;10450136;28;20242;-82
2022/08/10 01:41:59;;;;;;;3.80;2.07;;;;;17.30;102025.00;;;;10433283;28;20255;-82
2022/08/10 01:52:31;;;;;;;3.23;2.00;;;;;17.20;102017.00;;;;10425269;28;20186;-82
2022/08/10 01:57:36;;;;;;;2.33;2.13;;;;;17.10;102013.00;;;;10446097;28;20200;-82
2022/08/10 02:02:41;;;;;;;3.03;2.15;;;;;17.00;102021.00;;;;10449421;28;20230;-81
2022/08/10 02:07:45;;;;;;;5.07;2.70;;;;;17.00;102015.00;;;;10448883;28;20198;-82
2022/08/10 02:12:48;;;;;;;2.90;2.30;;;;;16.90;102015.00;;;;10448149;28;20192;-82
2022/08/10 02:17:53;;;;;;;3.87;2.10;;;;;16.80;102010.00;;;;10447858;28;20202;-82
2022/08/10 02:23:07;;;;;;;3.17;2.10;;;;;16.80;102014.00;;;;10432897;28;20588;-82
2022/08/10 02:28:16;;;;;;;4.93;2.27;;;;;16.70;102015.00;;;;10448013;28;20265;-82
2022/08/10 02:33:33;;;;;;;3.67;2.27;;;;;16.70;102010.00;;;;10428374;28;20199;-82
2022/08/10 02:38:48;;;;;;;2.27;2.07;;;;;16.60;102017.00;;;;10464060;28;20189;-82
2022/08/10 02:44:05;;;;;;;2.43;2.17;;;;;16.50;102024.00;;;;10480115;28;20213;-82
2022/08/10 02:49:37;;;;;;;3.93;2.50;;;;;16.50;102020.00;;;;10392836;28;20197;-81
2022/08/10 02:54:49;;;;;;;3.37;2.57;;;;;16.40;102015.00;;;;10390084;28;20709;-82
2022/08/10 02:59:56;;;;;;;5.13;2.70;;;;;16.40;102014.00;;;;10397636;28;20193;-82
2022/08/10 03:05:13;;;;;;;2.60;2.27;;;;;16.30;102022.00;;;;10422239;28;20275;-82
2022/08/10 03:10:25;;;;;;;4.83;2.50;;;;;16.20;102020.00;;;;10405957;28;20190;-82
2022/08/10 03:15:33;;;;;;;3.40;2.57;;;;;16.10;102015.00;;;;10420483;28;20201;-82
2022/08/10 03:20:39;;;;;;;2.80;2.60;;;;;16.00;102003.00;;;;10462354;28;20660;-82
2022/08/10 03:25:43;;;;;;;4.17;2.20;;;;;15.90;102004.00;;;;10462368;28;20210;-82
2022/08/10 03:30:57;;;;;;;7.07;3.60;;;;;15.90;102012.00;;;;10464560;28;20204;-82
2022/08/10 03:35:59;;;;;;;3.70;2.53;;;;;15.70;102019.00;;;;10446432;28;20244;-82
2022/08/10 03:41:47;;;;;;;7.30;3.40;;;;;15.60;102013.00;;;;10449062;28;20219;-81
2022/08/10 03:46:59;;;;;;;4.97;2.63;;;;;15.50;102018.00;;;;10462458;28;20195;-82
2022/08/10 03:52:01;;;;;;;3.10;2.77;;;;;15.40;102014.00;;;;10405124;28;20217;-82
2022/08/10 03:57:04;;;;;;;3.30;2.90;;;;;15.30;102023.00;;;;10404727;28;20200;-82
2022/08/10 04:02:07;;;;;;;4.70;2.73;;;;;15.20;102007.00;;;;10431582;28;20279;-82
2022/08/10 04:07:29;;;;;;;4.87;2.80;;;;;15.10;102016.00;;;;10421985;28;20194;-82
2022/08/10 04:12:31;;;;;;;5.20;3.17;;;;;15.10;102028.00;;;;10404742;28;20723;-81
2022/08/10 04:17:33;;;;;;;4.13;3.30;;;;;15.00;102019.00;;;;10438629;28;20255;-81
2022/08/10 04:22:58;;;;;;;5.17;3.10;;;;;15.00;102011.00;;;;10445759;28;20252;-82
2022/08/10 04:28:02;;;;;;;3.70;3.23;;;;;14.90;102008.00;;;;10422476;28;20206;-82
2022/08/10 04:33:06;;;;;;;4.90;3.17;;;;;14.90;102011.00;;;;10446022;28;20178;-82
2022/08/10 04:38:09;;;;;;;4.77;3.03;;;;;14.90;102014.00;;;;10468558;28;20683;-82
2022/08/10 04:43:12;;;;;;;4.60;3.30;;;;;15.00;102012.00;;;;10427837;28;20240;-81
2022/08/10 04:48:15;;;;;;;5.67;3.00;;;;;15.00;102011.00;;;;10450997;28;20660;-81
2022/08/10 04:53:37;;;;;;;4.83;3.60;;;;;15.00;102013.00;;;;10454529;28;20224;-82
2022/08/10 04:58:59;;;;;;;4.90;3.20;;;;;15.10;102014.00;;;;10437111;28;20276;-81
2022/08/10 05:04:01;;;;;;;5.70;3.70;;;;;15.20;102014.00;;;;10467615;28;20216;-81
2022/08/10 05:09:23;;;;;;;5.57;3.57;;;;;15.30;102013.00;;;;10437957;28;20174;-81
2022/08/10 05:14:25;;;;;;;4.00;3.53;;;;;15.50;102014.00;;;;10466682;28;20193;-82
2022/08/10 05:19:27;;;;;;;6.30;4.80;;;;;15.80;102022.00;;;;10464541;28;20201;-82
2022/08/10 05:24:49;;;;;;;5.27;4.37;;;;;16.20;102016.00;;;;10449944;28;20209;-82
2022/08/10 05:29:51;;;;;;;6.33;4.70;;;;;16.70;102017.00;;;;10433689;28;20662;-82
2022/08/10 05:35:04;;;;;;;7.47;4.73;;;;;16.90;102024.00;;;;10425871;28;20281;-82
2022/08/10 05:40:07;;;;;;;6.00;5.40;;;;;17.20;102024.00;;;;10431580;28;20190;-81
2022/08/10 05:45:23;;;;;;;8.45;5.32;;;;;17.60;102021.00;;;;10465446;28;20210;-81
2022/08/10 05:50:27;;;;;;;5.63;4.95;;;;;18.10;102026.00;;;;10451353;28;20246;-81
2022/08/10 05:55:30;;;;;;;9.77;4.93;;;;;18.30;102035.00;;;;10449698;28;20775;-81
2022/08/10 06:00:35;;;;;;;7.32;4.75;;;;;18.70;102027.00;;;;10429043;28;20193;-81
2022/08/10 06:05:52;;;;;;;6.25;4.97;;;;;19.20;102045.00;;;;10452499;28;20280;-81
2022/08/10 06:10:55;;;;;;;11.55;4.88;;;;;19.90;102041.00;;;;10439956;28;20240;-82
2022/08/10 06:16:19;;;;;;;8.07;5.10;;;;;20.10;102034.00;;;;10440550;28;20193;-82
2022/08/10 06:21:21;;;;;;;5.75;5.15;;;;;20.30;102037.00;;;;10430989;28;20277;-82
2022/08/10 06:26:23;;;;;;;7.65;5.65;;;;;20.60;102033.00;;;;10432384;28;20675;-82
2022/08/10 06:31:27;;;;;;;8.50;5.15;;;;;21.00;102034.00;;;;10457345;28;20563;-82
2022/08/10 06:36:51;;;;;;;5.57;4.95;;;;;21.10;102034.00;;;;10410740;28;20200;-82
2022/08/10 06:42:00;;;;;;;7.95;5.10;;;;;21.40;102035.00;;;;10441060;28;20607;-81
2022/08/10 06:47:21;;;;;;;12.63;4.70;;;;;21.70;102045.00;;;;10461813;28;20198;-81
2022/08/10 06:52:25;;;;;;;5.20;4.38;;;;;21.90;102041.00;;;;10464160;28;20645;-82
2022/08/10 06:57:30;;;;;;;8.15;4.90;;;;;21.90;102042.00;;;;10447678;28;20217;-82
2022/08/10 07:02:57;;;;;;;5.47;4.97;;;;;22.10;102045.00;;;;10430605;28;20218;-82
2022/08/10 07:08:00;;;;;;;8.70;5.18;;;;;22.20;102053.00;;;;10447793;28;20288;-82
2022/08/10 07:13:03;;;;;;;5.00;4.50;;;;;22.50;102055.00;;;;10390410;28;20198;-82
2022/08/10 07:18:05;;;;;;;4.80;3.75;;;;;23.10;102069.00;;;;10459626;28;20269;-82
2022/08/10 07:23:11;;;;;;;7.97;4.65;;;;;23.60;102055.00;;;;10445638;28;20248;-82
2022/08/10 07:28:34;;;;;;;8.73;4.53;;;;;24.00;102066.00;;;;10418025;28;20205;-83
2022/08/10 07:33:38;;;;;;;5.93;4.55;;;;;24.20;102064.00;;;;10439492;28;20243;-82
2022/08/10 07:38:42;;;;;;;9.00;4.43;;;;;24.50;102060.00;;;;10420923;28;20284;-83
2022/08/10 07:43:46;;;;;;;4.80;4.40;;;;;24.70;102060.00;;;;10455507;28;20217;-83
2022/08/10 07:48:58;;;;;;;8.30;4.82;;;;;25.00;102064.00;;;;10425928;28;20198;-83
2022/08/10 07:54:04;;;;;;;7.00;4.07;;;;;25.60;102061.00;;;;10388532;28;20617;-82
2022/08/10 07:59:09;;;;;;;8.40;4.55;;;;;26.00;102071.00;;;;10401802;28;20542;-82
2022/08/10 08:04:12;;;;;;;8.52;4.15;;;;;26.40;102072.00;;;;10462263;28;20718;-83
2022/08/10 08:09:14;;;;;;;7.68;3.47;;;;;26.80;102069.00;;;;10405458;28;20201;-83
2022/08/10 08:14:20;;;;;;;5.50;3.78;;;;;27.40;102065.00;;;;10428307;28;20190;-84
2022/08/10 08:19:24;;;;;;;4.05;3.60;;;;;27.90;102072.00;;;;10451382;28;20739;-83
2022/08/10 08:24:31;;;;;;;7.80;3.88;;;;;28.00;102061.00;;;;10415666;28;20603;-83
2022/08/10 08:29:40;;;;;;;8.90;4.20;;;;;28.10;102057.00;;;;10394917;28;20653;-83
2022/08/10 08:34:44;;;;;;;14.00;4.18;;;;;28.30;102050.00;;;;10402072;28;20191;-83
2022/08/10 08:39:47;;;;;;;8.68;4.15;;;;;28.40;102055.00;;;;10430712;28;20269;-83
2022/08/10 08:45:05;;;;;;;5.18;3.30;;;;;29.00;102047.00;;;;10450537;28;20221;-83
2022/08/10 08:50:27;;;;;;;7.22;3.20;;;;;29.20;102050.00;;;;10450228;28;20645;-83
2022/08/10 08:55:56;;;;;;;4.30;3.60;;;;;29.70;102047.00;;;;10433182;28;20197;-83
2022/08/10 09:01:12;;;;;;;6.35;3.47;;;;;30.00;102038.00;;;;10413514;28;20615;-81
2022/08/10 09:06:33;;;;;;;8.05;3.30;;;;;30.20;102040.00;;;;10450771;28;20237;-81
2022/08/10 09:12:00;;;;;;;6.10;2.95;;;;;30.60;102036.00;;;;10465651;28;20272;-83
2022/08/10 09:17:14;;;;;;;4.15;3.30;;;;;31.00;102036.00;;;;10445085;28;20235;-84
2022/08/10 09:22:28;;;;;;;5.53;2.97;;;;;31.50;102035.00;;;;10442175;28;20657;-82
2022/08/10 09:27:40;;;;;;;7.78;2.75;;;;;31.80;102035.00;;;;10457155;28;20181;-83
2022/08/10 09:32:52;;;;;;;6.43;3.05;;;;;32.00;102025.00;;;;10427324;28;20197;-82
2022/08/10 09:38:25;;;;;;;4.45;2.45;;;;;32.40;102021.00;;;;10466824;28;20247;-82
2022/08/10 09:43:34;;;;;;;5.78;3.35;;;;;32.70;102007.00;;;;10415323;28;20213;-82
2022/08/10 09:49:01;;;;;;;6.35;2.78;;;;;32.90;102007.00;;;;10408920;28;20194;-81
2022/08/10 09:54:41;;;;;;;5.07;3.00;;;;;33.10;102002.00;;;;10421110;28;20197;-82
2022/08/10 10:00:11;;;;;;;7.60;3.00;;;;;33.30;101999.00;;;;10440976;28;20195;-81
2022/08/10 10:05:55;;;;;;;8.00;3.08;;;;;33.50;101990.00;;;;10441972;28;20225;-81
2022/08/10 10:11:32;;;;;;;4.72;2.63;;;;;33.90;101981.00;;;;10392134;28;20206;-81
2022/08/10 10:16:46;;;;;;;5.07;2.67;;;;;34.10;101981.00;;;;10457689;28;20664;-82
2022/08/10 10:22:11;;;;;;;4.90;2.58;;;;;34.10;101974.00;;;;10446788;28;20212;-82
2022/08/10 10:27:16;;;;;;;3.70;2.88;;;;;34.40;101972.00;;;;10446200;28;20195;-82
2022/08/10 10:32:50;;;;;;;6.47;2.67;;;;;34.40;101974.00;;;;10420904;28;20186;-81
2022/08/10 10:38:01;;;;;;;6.50;2.80;;;;;34.90;101963.00;;;;10425545;28;20209;-83
2022/08/10 10:43:20;;;;;;;6.97;2.40;;;;;35.30;101951.00;;;;10396885;28;20214;-83
2022/08/10 10:48:55;;;;;;;7.20;2.60;;;;;35.70;101953.00;;;;10441361;28;20280;-83
2022/08/10 10:54:18;;;;;;;3.67;2.40;;;;;35.90;101943.00;;;;10438711;28;20696;-83
2022/08/10 10:59:43;;;;;;;3.92;2.22;;;;;36.00;101932.00;;;;10420516;28;20700;-83
2022/08/10 11:05:13;;;;;;;4.40;2.00;;;;;36.00;101926.00;;;;10400357;28;20212;-83
2022/08/10 11:10:19;;;;;;;3.92;2.20;;;;;36.20;101925.00;;;;10418120;28;20193;-83
2022/08/10 11:15:42;;;;;;;4.45;2.33;;;;;36.10;101914.00;;;;10432944;28;20688;-83
2022/08/10 11:21:08;;;;;;;4.57;2.67;;;;;35.70;101913.00;;;;10445571;28;20201;-83
2022/08/10 11:26:48;;;;;;;7.15;2.40;;;;;36.00;101903.00;;;;10436657;28;20325;-82
2022/08/10 11:32:02;;;;;;;3.90;2.10;;;;;36.10;101901.00;;;;10379246;28;20216;-83
2022/08/10 11:37:41;;;;;;;4.60;2.42;;;;;36.20;101900.00;;;;10420600;28;20193;-83
2022/08/10 11:43:09;;;;;;;5.65;2.10;;;;;36.50;101884.00;;;;10402279;28;20248;-83
2022/08/10 11:48:22;;;;;;;3.55;2.55;;;;;36.80;101891.00;;;;10437805;28;20212;-83
2022/08/10 11:53:52;;;;;;;4.00;2.25;;;;;37.00;101890.00;;;;10453457;28;20190;-83
2022/08/10 12:04:20;;;;;;;4.07;2.10;;;;;37.10;101882.00;;;;10439032;28;20217;-82
2022/08/10 12:09:27;;;;;;;3.83;2.15;;;;;37.00;101880.00;;;;10449260;28;20189;-82
2022/08/10 12:15:01;;;;;;;4.68;2.10;;;;;36.60;101874.00;;;;10421014;28;20202;-82
2022/08/10 12:20:09;;;;;;;4.20;2.42;;;;;36.50;101874.00;;;;10412769;28;20214;-82
2022/08/10 12:25:24;;;;;;;4.45;2.28;;;;;36.70;101859.00;;;;10466577;28;20198;-82
2022/08/10 12:30:52;;;;;;;3.80;2.10;;;;;36.90;101859.00;;;;10437387;28;20799;-83
2022/08/10 12:36:07;;;;;;;5.53;2.30;;;;;37.00;101858.00;;;;10435760;28;20207;-82
2022/08/10 12:41:27;;;;;;;3.50;2.40;;;;;37.30;101840.00;;;;10440352;28;20247;-82
2022/08/10 12:46:49;;;;;;;5.47;2.15;;;;;37.00;101840.00;;;;10422124;28;20597;-82
2022/08/10 12:52:11;;;;;;;4.00;2.50;;;;;36.90;101839.00;;;;10437898;28;20194;-82
2022/08/10 12:57:23;;;;;;;4.65;2.10;;;;;37.00;101832.00;;;;10428198;28;20209;-83
2022/08/10 13:02:28;;;;;;;4.47;2.08;;;;;37.20;101827.00;;;;10440579;28;20312;-82
2022/08/10 13:07:33;;;;;;;7.35;2.25;;;;;37.20;101834.00;;;;10459916;28;20264;-83
2022/08/10 13:12:57;;;;;;;7.57;2.55;;;;;37.00;101819.00;;;;10440560;28;20209;-83
2022/08/10 13:18:02;;;;;;;5.30;2.47;;;;;37.40;101822.00;;;;10448171;28;20266;-82
2022/08/10 13:23:14;;;;;;;5.32;2.08;;;;;37.90;101815.00;;;;10449348;28;20198;-83
2022/08/10 13:28:21;;;;;;;2.80;2.05;;;;;38.60;101804.00;;;;10451349;28;20707;-83
2022/08/10 13:33:46;;;;;;;3.65;1.80;;;;;39.30;101795.00;;;;10435814;28;20236;-83
2022/08/10 13:39:10;;;;;;;6.45;2.38;;;;;39.90;101795.00;;;;10453439;28;20186;-83
2022/08/10 13:44:27;;;;;;;3.60;1.88;;;;;40.60;101788.00;;;;10449260;28;20203;-83
2022/08/10 13:49:34;;;;;;;4.72;1.85;;;;;40.60;101784.00;;;;10427837;28;20830;-83
2022/08/10 13:54:40;;;;;;;3.00;1.98;;;;;41.00;101780.00;;;;10426844;28;20237;-83
2022/08/10 13:59:43;;;;;;;3.00;2.03;;;;;41.50;101772.00;;;;10408072;28;20217;-83
2022/08/10 14:05:13;;;;;;;3.67;2.03;;;;;42.00;101765.00;;;;10416561;28;20264;-83
2022/08/10 14:10:16;;;;;;;4.25;1.80;;;;;42.30;101769.00;;;;10439842;28;20229;-83
2022/08/10 14:15:42;;;;;;;5.45;1.70;;;;;42.50;101761.00;;;;10404090;28;20198;-83
2022/08/10 14:20:46;;;;;;;4.38;1.77;;;;;40.30;101752.00;;;;10447919;28;20198;-83
2022/08/10 14:25:51;;;;;;;4.13;2.40;;;;;42.50;101743.00;;;;10447426;28;20189;-83
2022/08/10 14:30:57;;;;;;;4.55;2.10;;;;;42.90;101739.00;;;;10429514;28;20233;-83
2022/08/10 14:36:02;;;;;;;3.70;2.15;;;;;43.20;101722.00;;;;10464234;28;20641;-84
2022/08/10 14:41:28;;;;;;;2.58;2.03;;;;;43.60;101721.00;;;;10431898;28;20190;-82
2022/08/10 14:46:56;;;;;;;8.13;2.50;;;;;44.10;101718.00;;;;10449038;28;20197;-82
2022/08/10 14:52:01;;;;;;;3.40;2.22;;;;;44.50;101705.00;;;;10425660;28;20209;-83
2022/08/10 14:57:08;;;;;;;2.80;1.92;;;;;44.80;101709.00;;;;10462691;28;20225;-83
2022/08/10 15:02:16;;;;;;;5.13;2.45;;;;;45.00;101705.00;;;;10445667;28;20217;-82
2022/08/10 15:07:39;;;;;;;2.65;2.20;;;;;44.50;101706.00;;;;10444389;28;20217;-82
2022/08/10 15:12:45;;;;;;;7.75;2.47;;;;;43.80;101703.00;;;;10421689;28;20226;-82
2022/08/10 15:17:55;;;;;;;6.85;2.30;;;;;40.10;101716.00;;;;10404539;28;20218;-82
2022/08/10 15:23:11;;;;;;;5.80;2.20;;;;;36.90;101708.00;;;;10429446;28;20212;-82
2022/08/10 15:28:35;;;;;;;3.30;2.20;;;;;37.50;101691.00;;;;10428267;28;20663;-83
2022/08/10 15:39:37;;;;;;;3.72;2.05;;;;;34.50;101691.00;;;;10437262;28;20210;-83
2022/08/10 15:44:59;;;;;;;3.85;1.90;;;;;36.50;101694.00;;;;10408440;28;20165;-82
2022/08/10 15:50:06;;;;;;;4.65;2.03;;;;;40.30;101672.00;;;;10445908;28;20200;-83
2022/08/10 15:55:20;;;;;;;4.72;1.73;;;;;38.50;101670.00;;;;10427938;28;20205;-83
2022/08/10 16:01:23;;;;;;;4.65;2.05;;;;;34.20;101678.00;;;;10455740;28;20200;-82
2022/08/10 16:06:57;;;;;;;5.03;2.40;;;;;32.90;101675.00;;;;10454045;28;20182;-82
2022/08/10 16:12:31;;;;;;;5.32;2.58;;;;;32.20;101672.00;;;;10433327;28;20300;-82
2022/08/10 16:17:45;;;;;;;2.30;2.10;;;;;31.80;101665.00;;;;10442033;28;20209;-82
2022/08/10 16:23:00;;;;;;;2.83;2.05;;;;;31.60;101662.00;;;;10431459;28;20196;-83
2022/08/10 16:28:04;;;;;;;4.30;2.40;;;;;31.40;101670.00;;;;10450125;28;20196;-83
2022/08/10 16:33:10;;;;;;;4.95;2.53;;;;;31.20;101673.00;;;;10436265;28;20197;-82
2022/08/10 16:38:12;;;;;;;4.20;2.28;;;;;31.00;101670.00;;;;10468655;28;20193;-83
2022/08/10 16:43:17;;;;;;;5.20;2.35;;;;;30.90;101662.00;;;;10435964;28;20668;-83
2022/08/10 16:48:31;;;;;;;3.47;2.20;;;;;30.80;101655.00;;;;10485206;28;20239;-82
2022/08/10 16:53:52;;;;;;;8.25;2.47;;;;;30.70;101657.00;;;;10434102;28;20565;-82
2022/08/10 16:58:56;;;;;;;5.90;2.63;;;;;30.60;101653.00;;;;10423476;28;20255;-82
2022/08/10 17:04:04;;;;;;;5.20;2.30;;;;;30.50;101651.00;;;;10466924;28;20222;-83
2022/08/10 17:09:18;;;;;;;4.68;2.20;;;;;30.40;101645.00;;;;10430485;28;20226;-82
2022/08/10 17:14:26;;;;;;;5.43;2.90;;;;;30.20;101643.00;;;;10410376;28;20202;-82
2022/08/10 17:19:36;;;;;;;2.75;2.50;;;;;30.10;101641.00;;;;10483696;28;20680;-82
2022/08/10 17:24:45;;;;;;;5.20;2.42;;;;;30.10;101641.00;;;;10449114;28;20641;-82
2022/08/10 17:29:54;;;;;;;5.00;2.40;;;;;29.90;101636.00;;;;10433398;28;20189;-82
2022/08/10 17:35:10;;;;;;;7.13;2.60;;;;;29.80;101636.00;;;;10430177;28;20293;-82
2022/08/10 17:40:25;;;;;;;5.82;2.53;;;;;29.70;101629.00;;;;10442209;28;20190;-81
2022/08/10 17:45:32;;;;;;;5.38;2.83;;;;;29.60;101631.00;;;;10451101;28;20231;-82
2022/08/10 17:50:51;;;;;;;4.90;2.42;;;;;29.50;101626.00;;;;10422772;28;20197;-82
2022/08/10 17:55:55;;;;;;;5.82;3.00;;;;;29.40;101628.00;;;;10421398;28;20216;-83
2022/08/10 18:01:01;;;;;;;8.20;2.90;;;;;29.30;101623.00;;;;10436375;28;20277;-82
2022/08/10 18:06:24;;;;;;;5.97;2.28;;;;;29.10;101629.00;;;;10435121;28;20192;-82
2022/08/10 18:11:29;;;;;;;3.53;2.60;;;;;29.00;101622.00;;;;10424359;28;20209;-82
2022/08/10 18:16:33;;;;;;;4.05;2.40;;;;;28.80;101627.00;;;;10436940;28;20221;-82
2022/08/10 18:21:42;;;;;;;6.07;2.83;;;;;28.70;101629.00;;;;10406778;28;20201;-82
2022/08/10 18:26:49;;;;;;;5.22;2.53;;;;;28.50;101624.00;;;;10411202;28;20282;-82
2022/08/10 18:31:58;;;;;;;6.10;3.00;;;;;28.30;101626.00;;;;10432233;28;20659;-82
2022/08/10 18:37:04;;;;;;;4.82;2.45;;;;;28.10;101633.00;;;;10429607;28;20225;-82
2022/08/10 18:42:13;;;;;;;3.38;2.58;;;;;27.90;101636.00;;;;10413884;28;20303;-82
2022/08/10 18:47:19;;;;;;;4.85;2.67;;;;;27.70;101640.00;;;;10443237;28;20610;-82
2022/08/10 18:52:24;;;;;;;4.70;2.53;;;;;27.50;101640.00;;;;10450598;28;20255;-82
2022/08/10 18:57:43;;;;;;;4.60;2.90;;;;;27.20;101638.00;;;;10427123;28;20206;-82
2022/08/10 19:03:10;;;;;;;5.95;2.88;;;;;26.90;101636.00;;;;10425492;28;20214;-81
2022/08/10 19:08:36;;;;;;;6.07;2.85;;;;;26.60;101646.00;;;;10459254;28;20189;-82
2022/08/10 19:14:11;;;;;;;6.82;3.10;;;;;26.40;101644.00;;;;10420261;28;20693;-82
2022/08/10 19:19:21;;;;;;;4.57;3.00;;;;;26.10;101650.00;;;;10443686;28;20560;-81
2022/08/10 19:24:40;;;;;;;6.95;2.70;;;;;25.80;101648.00;;;;10434063;28;20220;-82
2022/08/10 19:30:04;;;;;;;7.15;2.75;;;;;25.60;101661.00;;;;10453957;28;20553;-82
2022/08/10 19:35:26;;;;;;;4.40;3.00;;;;;25.40;101660.00;;;;10454472;28;20244;-82
2022/08/10 19:40:57;;;;;;;4.60;2.45;;;;;25.10;101665.00;;;;10422118;28;20252;-81
2022/08/10 19:46:35;;;;;;;5.63;3.17;;;;;25.00;101659.00;;;;10456963;28;20217;-81
2022/08/10 19:52:00;;;;;;;6.93;2.80;;;;;24.80;101663.00;;;;10421993;28;20203;-81
2022/08/10 19:57:34;;;;;;;3.50;2.20;;;;;24.70;101659.00;;;;10421083;28;20189;-82
2022/08/10 20:02:51;;;;;;;4.60;2.53;;;;;24.60;101660.00;;;;10444006;28;20223;-81
2022/08/10 20:08:20;;;;;;;9.63;3.28;;;;;24.60;101668.00;;;;10413365;28;20573;-82
2022/08/10 20:13:39;;;;;;;2.97;2.65;;;;;24.50;101676.00;;;;10418204;28;20205;-82
2022/08/10 20:18:49;;;;;;;3.28;2.13;;;;;24.40;101675.00;;;;10481051;28;20603;-82
2022/08/10 20:24:07;;;;;;;3.38;2.50;;;;;24.20;101680.00;;;;10437426;28;20198;-82
2022/08/10 20:29:14;;;;;;;4.20;2.47;;;;;24.10;101682.00;;;;10440175;28;20738;-82
2022/08/10 20:34:30;;;;;;;7.63;2.85;;;;;23.90;101667.00;;;;10426157;28;20560;-82
2022/08/10 20:40:08;;;;;;;4.43;2.65;;;;;23.80;101672.00;;;;10451978;28;20548;-82
2022/08/10 20:45:18;;;;;;;5.93;2.70;;;;;23.70;101672.00;;;;10432746;28;20224;-82
2022/08/10 20:50:32;;;;;;;4.68;2.33;;;;;23.60;101664.00;;;;10447397;28;20208;-82
2022/08/10 20:55:52;;;;;;;2.63;2.28;;;;;23.50;101669.00;;;;10433471;28;20246;-82
2022/08/10 21:01:15;;;;;;;4.32;2.30;;;;;23.30;101673.00;;;;10450453;28;20193;-83
2022/08/10 21:06:53;;;;;;;5.13;3.13;;;;;23.10;101670.00;;;;10427048;28;20206;-83
2022/08/10 21:12:17;;;;;;;5.80;2.30;;;;;22.90;101671.00;;;;10432208;28;20268;-83
2022/08/10 21:17:34;;;;;;;6.63;2.60;;;;;22.70;101671.00;;;;10429019;28;20292;-83
2022/08/10 21:22:42;;;;;;;4.47;2.30;;;;;22.40;101670.00;;;;10433012;28;20541;-83
2022/08/10 23:01:41;;;;;;;5.43;2.20;;;;;19.70;101627.00;;;;10454668;28;20190;-82
2022/08/10 23:07:15;;;;;;;3.63;2.30;;;;;19.60;101629.00;;;;10424590;28;20197;-82
2022/08/10 23:12:31;;;;;;;2.63;2.13;;;;;19.50;101627.00;;;;10448262;28;20301;-82
2022/08/10 23:23:05;;;;;;;4.45;3.03;;;;;19.40;101622.00;;;;10462202;28;20190;-82
2022/08/10 23:28:14;;;;;;;7.30;2.58;;;;;19.30;101625.00;;;;10459706;28;20198;-82
2022/08/10 23:33:25;;;;;;;2.72;2.50;;;;;19.10;101615.00;;;;10445139;28;20182;-82
2022/08/10 23:38:40;;;;;;;5.75;2.70;;;;;19.00;101622.00;;;;10426416;28;20300;-82
2022/08/10 23:43:44;;;;;;;2.90;2.28;;;;;18.90;101620.00;;;;10428902;28;20221;-82
2022/08/10 23:49:06;;;;;;;3.88;2.78;;;;;18.80;101613.00;;;;10424461;28;20193;-81
2022/08/10 23:54:15;;;;;;;4.10;2.78;;;;;18.70;101617.00;;;;10426468;28;20664;-81
2022/08/10 23:59:21;;;;;;;3.47;2.40;;;;;18.60;101625.00;;;;10437882;28;20748;-81
